createdAt,value
2017-08-14T00:00:26.318Z,76.23
2017-08-14T00:01:36.811Z,75.95
2017-08-14T00:02:47.297Z,76.23
2017-08-14T00:03:57.128Z,75.95
2017-08-14T00:05:07.621Z,75.38
2017-08-14T00:06:18.131Z,75.38
2017-08-14T00:07:28.299Z,75.47
2017-08-14T00:08:38.457Z,75.38
2017-08-14T00:09:48.616Z,75.67
2017-08-14T00:10:59.104Z,75.38
2017-08-14T00:12:09.598Z,75.67
2017-08-14T00:13:20.085Z,76.23
2017-08-14T00:14:30.243Z,76.52
2017-08-14T00:15:40.411Z,76.33
2017-08-14T00:16:50.896Z,76.42
2017-08-14T00:18:01.388Z,76.71
2017-08-14T00:19:11.872Z,76.9
2017-08-14T00:20:22.028Z,76.52
2017-08-14T00:21:32.515Z,76.71
2017-08-14T00:22:42.689Z,76.23
2017-08-14T00:23:53.176Z,76.1
2017-08-14T00:25:03.663Z,76.81
2017-08-14T00:26:14.150Z,76.42
2017-08-14T00:27:23.978Z,76.14
2017-08-14T00:28:34.400Z,76.61
2017-08-14T00:29:44.671Z,76.42
2017-08-14T00:30:54.944Z,76.33
2017-08-14T00:32:05.214Z,75.76
2017-08-14T00:33:15.167Z,75.95
2017-08-14T00:34:25.435Z,75.38
2017-08-14T00:35:35.705Z,75.47
2017-08-14T00:36:45.974Z,75.38
2017-08-14T00:37:56.257Z,75.85
2017-08-14T00:39:06.524Z,75.57
2017-08-14T00:40:16.790Z,75.76
2017-08-14T00:41:27.061Z,75.95
2017-08-14T00:42:37.330Z,76.14
2017-08-14T00:43:47.286Z,76.42
2017-08-14T00:44:57.558Z,76.04
2017-08-14T00:46:07.830Z,76.9
2017-08-14T00:47:17.783Z,76.33
2017-08-14T00:48:28.050Z,76.71
2017-08-14T00:49:38.320Z,76.23
2017-08-14T00:50:48.586Z,76.04
2017-08-14T00:51:58.853Z,76.61
2017-08-14T00:53:09.121Z,76.9
2017-08-14T00:54:19.389Z,77.37
2017-08-14T00:55:29.346Z,77.66
2017-08-14T00:56:39.616Z,78
2017-08-14T00:57:49.576Z,77.72
2017-08-14T00:58:59.848Z,77.76
2017-08-14T01:00:09.801Z,78
2017-08-14T01:01:19.762Z,78.1
2017-08-14T01:02:30.047Z,77.81
2017-08-14T01:03:40.313Z,78.29
2017-08-14T01:04:50.577Z,78.1
2017-08-14T01:06:00.528Z,78.86
2017-08-14T01:07:10.800Z,79.14
2017-08-14T01:08:21.078Z,78.67
2017-08-14T01:09:31.359Z,78.29
2017-08-14T01:10:41.629Z,78.86
2017-08-14T01:11:51.898Z,79.62
2017-08-14T01:13:02.165Z,78.96
2017-08-14T01:14:12.433Z,79.14
2017-08-14T01:15:22.700Z,78.48
2017-08-14T01:16:32.651Z,79.14
2017-08-14T01:17:42.917Z,79.05
2017-08-14T01:18:52.558Z,79.52
2017-08-14T01:20:02.509Z,79.05
2017-08-14T01:21:12.897Z,79.43
2017-08-14T01:22:22.848Z,78.96
2017-08-14T01:23:33.111Z,79.72
2017-08-14T01:24:43.376Z,79.91
2017-08-14T01:25:53.642Z,79.68
2017-08-14T01:27:03.918Z,80.05
2017-08-14T01:28:13.869Z,79.68
2017-08-14T01:29:24.134Z,79.77
2017-08-14T01:30:34.399Z,79.77
2017-08-14T01:31:44.352Z,80.15
2017-08-14T01:32:54.619Z,79.96
2017-08-14T01:34:04.573Z,80.34
2017-08-14T01:35:14.839Z,79.68
2017-08-14T01:36:25.105Z,79.68
2017-08-14T01:37:35.056Z,80.15
2017-08-14T01:38:45.322Z,80.24
2017-08-14T01:39:55.596Z,80.63
2017-08-14T01:41:05.547Z,80
2017-08-14T01:42:15.815Z,79.39
2017-08-14T01:43:25.454Z,79.81
2017-08-14T01:44:35.718Z,79.86
2017-08-14T01:45:45.985Z,80.29
2017-08-14T01:46:56.257Z,80.34
2017-08-14T01:48:06.212Z,80.15
2017-08-14T01:49:16.483Z,80.82
2017-08-14T01:50:26.754Z,81.48
2017-08-14T01:51:37.022Z,81.58
2017-08-14T01:52:47.294Z,81.38
2017-08-14T01:53:57.558Z,81.48
2017-08-14T01:55:07.554Z,81.38
2017-08-14T01:56:17.508Z,81.77
2017-08-14T01:57:27.146Z,81.48
2017-08-14T01:58:37.420Z,82.05
2017-08-14T01:59:47.687Z,82.05
2017-08-14T02:00:57.958Z,82.53
2017-08-14T02:02:08.226Z,83.19
2017-08-14T02:03:18.489Z,83.48
2017-08-14T02:04:28.448Z,84.05
2017-08-14T02:05:38.713Z,84.43
2017-08-14T02:06:48.987Z,84.48
2017-08-14T02:07:59.253Z,84.58
2017-08-14T02:09:09.518Z,85.24
2017-08-14T02:10:19.781Z,85.34
2017-08-14T02:11:29.417Z,85.34
2017-08-14T02:12:39.690Z,84.58
2017-08-14T02:13:49.647Z,84.39
2017-08-14T02:14:59.915Z,84.77
2017-08-14T02:16:10.288Z,84.95
2017-08-14T02:17:20.552Z,84.77
2017-08-14T02:18:30.821Z,84.2
2017-08-14T02:19:41.086Z,85.24
2017-08-14T02:20:51.360Z,85.34
2017-08-14T02:22:01.626Z,85.24
2017-08-14T02:23:11.278Z,85.34
2017-08-14T02:24:21.226Z,85.53
2017-08-14T02:25:31.493Z,85.34
2017-08-14T02:26:41.447Z,85.34
2017-08-14T02:27:51.715Z,85.91
2017-08-14T02:29:01.982Z,85.24
2017-08-14T02:30:12.252Z,85.15
2017-08-14T02:31:22.524Z,85.24
2017-08-14T02:32:32.809Z,85.15
2017-08-14T02:33:43.078Z,85.05
2017-08-14T02:34:53.351Z,86
2017-08-14T02:36:03.301Z,85.91
2017-08-14T02:37:13.569Z,85.15
2017-08-14T02:38:23.523Z,85.72
2017-08-14T02:39:33.795Z,85.05
2017-08-14T02:40:44.068Z,85.24
2017-08-14T02:41:54.021Z,85.15
2017-08-14T02:43:04.287Z,85.24
2017-08-14T02:44:14.555Z,85.34
2017-08-14T02:45:25.139Z,85.91
2017-08-14T02:46:35.411Z,86.1
2017-08-14T02:47:45.375Z,86.38
2017-08-14T02:48:55.639Z,86.1
2017-08-14T02:50:05.916Z,86.57
2017-08-14T02:51:15.893Z,85.91
2017-08-14T02:52:26.188Z,86.57
2017-08-14T02:53:36.461Z,86.57
2017-08-14T02:54:46.729Z,86.76
2017-08-14T02:55:56.998Z,86.86
2017-08-14T02:57:07.265Z,86.19
2017-08-14T02:58:17.530Z,86.29
2017-08-14T02:59:27.795Z,86.19
2017-08-14T03:00:38.062Z,86.38
2017-08-14T03:01:48.326Z,86
2017-08-14T03:02:58.591Z,86.86
2017-08-14T03:04:08.860Z,86.67
2017-08-14T03:05:18.814Z,86.57
2017-08-14T03:06:29.087Z,86.76
2017-08-14T03:07:39.353Z,86.47
2017-08-14T03:08:49.623Z,87.05
2017-08-14T03:09:59.576Z,87.05
2017-08-14T03:11:09.528Z,87.38
2017-08-14T03:12:19.795Z,87.81
2017-08-14T03:13:30.058Z,88
2017-08-14T03:14:40.016Z,88.28
2017-08-14T03:15:49.973Z,88.53
2017-08-14T03:17:00.241Z,88.34
2017-08-14T03:18:10.507Z,89.57
2017-08-14T03:19:20.772Z,89.86
2017-08-14T03:20:31.043Z,90.14
2017-08-14T03:21:41.308Z,90.14
2017-08-14T03:22:51.573Z,90.52
2017-08-14T03:24:01.525Z,90.61
2017-08-14T03:25:11.797Z,91.38
2017-08-14T03:26:21.754Z,90.8
2017-08-14T03:27:32.024Z,90.61
2017-08-14T03:28:41.661Z,90.52
2017-08-14T03:29:51.925Z,90.8
2017-08-14T03:31:02.193Z,90.8
2017-08-14T03:32:12.490Z,91.19
2017-08-14T03:33:22.756Z,90.9
2017-08-14T03:34:32.712Z,90.9
2017-08-14T03:35:42.685Z,90.8
2017-08-14T03:36:52.949Z,91.09
2017-08-14T03:38:03.233Z,90.61
2017-08-14T03:39:13.496Z,90.42
2017-08-14T03:40:23.131Z,90.71
2017-08-14T03:41:33.394Z,90.23
2017-08-14T03:42:43.346Z,89.95
2017-08-14T03:43:53.294Z,90.05
2017-08-14T03:45:03.566Z,89.95
2017-08-14T03:46:13.839Z,90.05
2017-08-14T03:47:23.790Z,89.67
2017-08-14T03:48:34.060Z,89.86
2017-08-14T03:49:44.322Z,90.05
2017-08-14T03:50:54.267Z,89.86
2017-08-14T03:52:04.538Z,90.14
2017-08-14T03:53:14.489Z,89.28
2017-08-14T03:54:24.751Z,89.76
2017-08-14T03:55:34.706Z,89.67
2017-08-14T03:56:44.971Z,89.67
2017-08-14T03:57:54.607Z,89.19
2017-08-14T03:59:04.559Z,89.38
2017-08-14T04:00:14.831Z,88.81
2017-08-14T04:01:25.104Z,88.9
2017-08-14T04:02:35.394Z,88.71
2017-08-14T04:03:45.348Z,88.85
2017-08-14T04:04:55.299Z,88.09
2017-08-14T04:06:05.570Z,87.81
2017-08-14T04:07:15.530Z,87.81
2017-08-14T04:08:25.812Z,87.81
2017-08-14T04:09:36.076Z,87.71
2017-08-14T04:10:46.362Z,87.81
2017-08-14T04:11:56.627Z,87.81
2017-08-14T04:13:06.894Z,87.14
2017-08-14T04:14:17.172Z,86.67
2017-08-14T04:15:27.448Z,86.67
2017-08-14T04:16:37.715Z,86.86
2017-08-14T04:17:47.358Z,86.57
2017-08-14T04:18:57.310Z,86.67
2017-08-14T04:20:07.583Z,86.99
2017-08-14T04:21:17.220Z,86.24
2017-08-14T04:22:27.172Z,86.61
2017-08-14T04:23:37.440Z,85.86
2017-08-14T04:24:47.719Z,85.86
2017-08-14T04:25:57.991Z,85.47
2017-08-14T04:27:08.260Z,84.62
2017-08-14T04:28:18.525Z,84.62
2017-08-14T04:29:28.476Z,84.52
2017-08-14T04:30:38.742Z,83.29
2017-08-14T04:31:49.017Z,83
2017-08-14T04:32:59.278Z,82.43
2017-08-14T04:34:09.238Z,82.19
2017-08-14T04:35:19.519Z,82.09
2017-08-14T04:36:29.670Z,81.43
2017-08-14T04:37:39.936Z,81.43
2017-08-14T04:38:49.889Z,80.66
2017-08-14T04:39:59.838Z,81.24
2017-08-14T04:41:09.798Z,80.86
2017-08-14T04:42:19.750Z,80.86
2017-08-14T04:43:29.387Z,80.19
2017-08-14T04:44:39.341Z,80.95
2017-08-14T04:45:49.611Z,80.57
2017-08-14T04:46:59.878Z,80.23
2017-08-14T04:48:09.834Z,80.23
2017-08-14T04:49:20.115Z,79.75
2017-08-14T04:50:29.756Z,80.23
2017-08-14T04:51:40.024Z,79.94
2017-08-14T04:52:50.292Z,79.57
2017-08-14T04:54:00.595Z,79.85
2017-08-14T04:55:10.548Z,78.99
2017-08-14T04:56:20.186Z,78.99
2017-08-14T04:57:30.453Z,79.28
2017-08-14T04:58:40.720Z,80.04
2017-08-14T04:59:50.687Z,78.8
2017-08-14T05:01:00.953Z,78.23
2017-08-14T05:02:11.231Z,78.9
2017-08-14T05:03:21.498Z,79.57
2017-08-14T05:04:31.765Z,78.04
2017-08-14T05:05:42.029Z,78.14
2017-08-14T05:06:51.983Z,78.52
2017-08-14T05:08:02.249Z,78.52
2017-08-14T05:09:12.516Z,79.03
2017-08-14T05:10:22.787Z,79.28
2017-08-14T05:11:32.739Z,78.94
2017-08-14T05:12:42.691Z,80.18
2017-08-14T05:13:52.649Z,80.18
2017-08-14T05:15:02.913Z,79.51
2017-08-14T05:16:12.879Z,78.65
2017-08-14T05:17:23.148Z,77.7
2017-08-14T05:18:33.105Z,77.8
2017-08-14T05:19:43.381Z,78.46
2017-08-14T05:20:53.648Z,78.56
2017-08-14T05:22:03.290Z,78.37
2017-08-14T05:23:13.245Z,79.41
2017-08-14T05:24:23.512Z,78.27
2017-08-14T05:25:33.776Z,78.94
2017-08-14T05:26:43.729Z,78.46
2017-08-14T05:27:53.681Z,77.8
2017-08-14T05:29:03.633Z,77.7
2017-08-14T05:30:13.899Z,77.7
2017-08-14T05:31:24.165Z,78.37
2017-08-14T05:32:34.432Z,78.17
2017-08-14T05:33:44.706Z,78.94
2017-08-14T05:34:54.983Z,78.85
2017-08-14T05:36:05.252Z,77.8
2017-08-14T05:37:15.206Z,77.83
2017-08-14T05:38:25.473Z,77.64
2017-08-14T05:39:34.799Z,77.64
2017-08-14T05:40:45.068Z,78.03
2017-08-14T05:41:55.054Z,77.83
2017-08-14T05:43:05.331Z,77.74
2017-08-14T05:44:15.313Z,77.83
2017-08-14T05:45:25.583Z,77.45
2017-08-14T05:46:35.220Z,77.26
2017-08-14T05:47:45.491Z,77.45
2017-08-14T05:48:55.759Z,77.93
2017-08-14T05:50:05.713Z,77.93
2017-08-14T05:51:15.996Z,77.45
2017-08-14T05:52:26.270Z,77.26
2017-08-14T05:53:36.540Z,76.31
2017-08-14T05:54:46.818Z,76.69
2017-08-14T05:55:57.109Z,76.88
2017-08-14T05:57:07.403Z,76.79
2017-08-14T05:58:17.042Z,76.03
2017-08-14T05:59:27.319Z,76.54
2017-08-14T06:00:36.953Z,76.21
2017-08-14T06:01:47.227Z,76.16
2017-08-14T06:02:57.498Z,76.16
2017-08-14T06:04:07.763Z,76.92
2017-08-14T06:05:18.030Z,76.25
2017-08-14T06:06:28.305Z,76.06
2017-08-14T06:07:38.263Z,75.87
2017-08-14T06:08:47.905Z,75.78
2017-08-14T06:09:58.174Z,76.64
2017-08-14T06:11:08.441Z,76.35
2017-08-14T06:12:18.708Z,76.54
2017-08-14T06:13:28.979Z,74.35
2017-08-14T06:14:39.246Z,74.73
2017-08-14T06:15:49.524Z,74.35
2017-08-14T06:16:59.801Z,73.96
2017-08-14T06:18:10.167Z,74.06
2017-08-14T06:19:21.516Z,76.64
2017-08-14T06:20:31.470Z,75.87
2017-08-14T06:21:41.432Z,75.43
2017-08-14T06:22:51.718Z,75.43
2017-08-14T06:24:02.025Z,75.43
2017-08-14T06:25:11.671Z,76.48
2017-08-14T06:26:21.940Z,76.2
2017-08-14T06:27:32.206Z,76.48
2017-08-14T06:28:42.163Z,76.01
2017-08-14T06:29:52.120Z,76.77
2017-08-14T06:31:02.387Z,76.29
2017-08-14T06:32:12.695Z,76.29
2017-08-14T06:33:22.964Z,75.62
2017-08-14T06:34:33.521Z,75.91
2017-08-14T06:35:43.164Z,76.2
2017-08-14T06:36:53.436Z,76.01
2017-08-14T06:38:03.708Z,73.72
2017-08-14T06:39:13.678Z,74.77
2017-08-14T06:40:23.953Z,75.24
2017-08-14T06:41:33.907Z,74.19
2017-08-14T06:42:43.546Z,73.52
2017-08-14T06:43:53.818Z,75.37
2017-08-14T06:45:04.094Z,74.96
2017-08-14T06:46:14.368Z,74.96
2017-08-14T06:47:24.637Z,74.38
2017-08-14T06:48:34.910Z,74.52
2017-08-14T06:49:45.189Z,71.18
2017-08-14T06:50:55.143Z,71.84
2017-08-14T06:52:05.411Z,72.23
2017-08-14T06:53:15.678Z,72.61
2017-08-14T06:54:25.947Z,73.56
2017-08-14T06:55:36.213Z,74.42
2017-08-14T06:56:46.169Z,74.9
2017-08-14T06:57:56.126Z,73.85
2017-08-14T06:59:06.080Z,73.66
2017-08-14T07:00:16.349Z,73.66
2017-08-14T07:01:26.303Z,73.94
2017-08-14T07:02:36.571Z,73.94
2017-08-14T07:03:46.525Z,73.56
2017-08-14T07:04:56.798Z,73.28
2017-08-14T07:06:06.752Z,72.42
2017-08-14T07:07:16.723Z,71.94
2017-08-14T07:08:26.995Z,72.51
2017-08-14T07:09:37.265Z,72.55
2017-08-14T07:10:47.534Z,72.89
2017-08-14T07:11:57.507Z,71.41
2017-08-14T07:13:07.514Z,71.5
2017-08-14T07:14:17.783Z,77.89
2017-08-14T07:15:27.736Z,78.75
2017-08-14T07:16:37.392Z,78.09
2017-08-14T07:17:47.345Z,77.03
2017-08-14T07:18:57.306Z,75.98
2017-08-14T07:20:07.576Z,75.13
2017-08-14T07:21:17.849Z,74.17
2017-08-14T07:22:27.807Z,73.79
2017-08-14T07:23:38.084Z,73.98
2017-08-14T07:24:48.046Z,73.79
2017-08-14T07:25:58.334Z,72.64
2017-08-14T07:27:08.603Z,73.6
2017-08-14T07:28:18.873Z,73.12
2017-08-14T07:29:28.837Z,72.83
2017-08-14T07:30:39.106Z,72.64
2017-08-14T07:31:49.063Z,73.22
2017-08-14T07:32:59.026Z,73.69
2017-08-14T07:34:09.299Z,73.12
2017-08-14T07:35:19.568Z,73.32
2017-08-14T07:36:29.841Z,72.36
2017-08-14T07:37:39.800Z,72.55
2017-08-14T07:38:49.757Z,72.36
2017-08-14T07:40:00.028Z,73.03
2017-08-14T07:41:10.300Z,72.2
2017-08-14T07:42:20.569Z,71.72
2017-08-14T07:43:30.525Z,72.68
2017-08-14T07:44:40.480Z,71.34
2017-08-14T07:45:50.436Z,70.77
2017-08-14T07:47:00.081Z,70.39
2017-08-14T07:48:10.355Z,71.25
2017-08-14T07:49:22.881Z,70.67
2017-08-14T07:50:32.858Z,70.01
2017-08-14T07:51:42.826Z,70.01
2017-08-14T07:52:53.100Z,70.01
2017-08-14T07:54:03.370Z,69.05
2017-08-14T07:55:13.325Z,69.82
2017-08-14T07:56:23.280Z,69.05
2017-08-14T07:57:33.550Z,68.48
2017-08-14T07:58:43.535Z,69.24
2017-08-14T07:59:53.493Z,68.19
2017-08-14T08:01:03.765Z,68.48
2017-08-14T08:02:14.043Z,68.57
2017-08-14T08:03:24.318Z,68.86
2017-08-14T08:04:34.275Z,68.67
2017-08-14T08:05:44.551Z,69.18
2017-08-14T08:06:54.826Z,69.15
2017-08-14T08:08:04.787Z,69.66
2017-08-14T08:09:14.431Z,69.95
2017-08-14T08:10:23.757Z,69.76
2017-08-14T08:11:33.717Z,69.09
2017-08-14T08:12:43.683Z,68.9
2017-08-14T08:13:53.957Z,69.09
2017-08-14T08:15:04.232Z,69.37
2017-08-14T08:16:14.193Z,69.27
2017-08-14T08:17:24.165Z,68.8
2017-08-14T08:18:34.440Z,69.66
2017-08-14T08:19:44.718Z,71.19
2017-08-14T08:20:54.991Z,71.7
2017-08-14T08:22:04.968Z,71.47
2017-08-14T08:23:15.240Z,71.86
2017-08-14T08:24:25.516Z,71.03
2017-08-14T08:25:35.792Z,70.17
2017-08-14T08:26:45.750Z,70.56
2017-08-14T08:27:56.025Z,69.02
2017-08-14T08:29:06.297Z,68.45
2017-08-14T08:30:16.251Z,68.55
2017-08-14T08:31:26.211Z,68.45
2017-08-14T08:32:36.177Z,67.97
2017-08-14T08:33:46.137Z,67.4
2017-08-14T08:34:56.408Z,67.3
2017-08-14T08:36:06.371Z,67.11
2017-08-14T08:37:16.642Z,65.39
2017-08-14T08:38:26.921Z,65.77
2017-08-14T08:39:37.194Z,67.21
2017-08-14T08:40:47.152Z,67.49
2017-08-14T08:41:57.420Z,68.55
2017-08-14T08:43:07.770Z,67.59
2017-08-14T08:44:18.043Z,68.35
2017-08-14T08:45:27.685Z,67.24
2017-08-14T08:46:37.965Z,65.87
2017-08-14T08:47:48.248Z,66.38
2017-08-14T08:48:58.518Z,66.28
2017-08-14T08:50:08.480Z,66.47
2017-08-14T08:51:18.752Z,66.96
2017-08-14T08:52:28.720Z,65.52
2017-08-14T08:53:38.995Z,65.9
2017-08-14T08:54:48.637Z,65.52
2017-08-14T08:55:58.599Z,66.19
2017-08-14T08:57:08.556Z,66.86
2017-08-14T08:58:18.826Z,64.02
2017-08-14T08:59:28.784Z,63.26
2017-08-14T09:00:38.743Z,63.32
2017-08-14T09:01:48.385Z,63.32
2017-08-14T09:02:58.660Z,64.88
2017-08-14T09:04:08.618Z,62.84
2017-08-14T09:05:18.582Z,64.22
2017-08-14T09:06:28.539Z,63.93
2017-08-14T09:07:38.499Z,64.12
2017-08-14T09:08:48.465Z,62.97
2017-08-14T09:09:58.429Z,63.06
2017-08-14T09:11:08.391Z,65.26
2017-08-14T09:12:18.664Z,65.26
2017-08-14T09:13:28.305Z,64.31
2017-08-14T09:14:37.327Z,63.93
2017-08-14T09:15:47.289Z,63.35
2017-08-14T09:16:57.571Z,63.16
2017-08-14T09:18:07.846Z,62.87
2017-08-14T09:19:18.157Z,63.26
2017-08-14T09:20:27.491Z,64.79
2017-08-14T09:21:37.770Z,64.79
2017-08-14T09:22:48.042Z,65.11
2017-08-14T09:23:58.321Z,61.76
2017-08-14T09:25:08.600Z,62.33
2017-08-14T09:26:18.877Z,64.34
2017-08-14T09:27:28.842Z,62.81
2017-08-14T09:28:39.124Z,62.04
2017-08-14T09:29:49.398Z,63.67
2017-08-14T09:30:59.363Z,64.15
2017-08-14T09:32:09.325Z,62.33
2017-08-14T09:33:19.288Z,62.36
2017-08-14T09:34:28.932Z,62.74
2017-08-14T09:35:39.216Z,62.36
2017-08-14T09:36:49.176Z,62.84
2017-08-14T09:37:59.133Z,60.54
2017-08-14T09:39:09.410Z,61.98
2017-08-14T09:40:19.685Z,61.21
2017-08-14T09:41:29.959Z,61.88
2017-08-14T09:42:39.932Z,62.17
2017-08-14T09:43:49.894Z,62.07
2017-08-14T09:44:59.851Z,60.73
2017-08-14T09:46:10.152Z,61.79
2017-08-14T09:47:19.801Z,60.16
2017-08-14T09:48:29.760Z,57.57
2017-08-14T09:49:40.036Z,58.34
2017-08-14T09:50:49.993Z,59.04
2017-08-14T09:52:00.383Z,59.61
2017-08-14T09:53:10.660Z,58.75
2017-08-14T09:54:20.620Z,59.33
2017-08-14T09:55:30.589Z,56.16
2017-08-14T09:56:40.885Z,56.07
2017-08-14T09:57:50.847Z,57.7
2017-08-14T09:59:01.119Z,57.89
2017-08-14T10:00:11.074Z,58.84
2017-08-14T10:01:21.356Z,58.27
2017-08-14T10:02:31.634Z,58.87
2017-08-14T10:03:41.906Z,59.06
2017-08-14T10:04:51.871Z,58.2
2017-08-14T10:06:02.167Z,58.97
2017-08-14T10:07:12.448Z,58.39
2017-08-14T10:08:22.724Z,57.24
2017-08-14T10:09:33.005Z,56.31
2017-08-14T10:10:42.968Z,53.72
2017-08-14T10:11:52.928Z,55.93
2017-08-14T10:13:02.575Z,56.79
2017-08-14T10:14:12.546Z,52.95
2017-08-14T10:15:22.507Z,56.02
2017-08-14T10:16:32.468Z,53.53
2017-08-14T10:17:42.440Z,52.09
2017-08-14T10:18:52.721Z,50.56
2017-08-14T10:20:02.681Z,53.82
2017-08-14T10:21:12.646Z,55.26
2017-08-14T10:22:22.605Z,56.51
2017-08-14T10:23:32.565Z,54.49
2017-08-14T10:24:42.523Z,52.28
2017-08-14T10:25:52.805Z,52.67
2017-08-14T10:27:02.764Z,52.38
2017-08-14T10:28:13.041Z,53.63
2017-08-14T10:29:23.019Z,52.28
2017-08-14T10:30:32.663Z,51.71
2017-08-14T10:31:42.947Z,50.27
2017-08-14T10:32:53.220Z,51.81
2017-08-14T10:34:02.865Z,51.42
2017-08-14T10:35:12.525Z,50.75
2017-08-14T10:36:22.797Z,47.97
2017-08-14T10:37:32.755Z,49.6
2017-08-14T10:38:42.407Z,51.61
2017-08-14T10:39:52.684Z,52.48
2017-08-14T10:41:02.985Z,50.56
2017-08-14T10:42:13.305Z,50.37
2017-08-14T10:43:23.268Z,50.17
2017-08-14T10:44:33.551Z,51.23
2017-08-14T10:45:43.204Z,50.75
2017-08-14T10:46:52.860Z,51.32
2017-08-14T10:48:02.847Z,50.65
2017-08-14T10:49:12.804Z,51.45
2017-08-14T10:50:23.079Z,52.12
2017-08-14T10:51:33.035Z,50.96
2017-08-14T10:52:43.317Z,50.87
2017-08-14T10:53:53.279Z,51.25
2017-08-14T10:55:03.558Z,52.02
2017-08-14T10:56:13.210Z,51.93
2017-08-14T10:57:23.169Z,52.69
2017-08-14T10:58:32.502Z,53.08
2017-08-14T10:59:42.784Z,52.31
2017-08-14T11:00:53.061Z,50.68
2017-08-14T11:02:03.357Z,53.39
2017-08-14T11:03:13.315Z,52.79
2017-08-14T11:04:23.591Z,51.95
2017-08-14T11:05:33.237Z,50.42
2017-08-14T11:06:43.209Z,49.65
2017-08-14T11:07:53.488Z,49.05
2017-08-14T11:09:03.762Z,51.28
2017-08-14T11:10:13.725Z,51.37
2017-08-14T11:11:23.997Z,51.09
2017-08-14T11:12:34.277Z,49.55
2017-08-14T11:13:44.616Z,51.09
2017-08-14T11:14:54.886Z,54.74
2017-08-14T11:16:04.535Z,49.46
2017-08-14T11:17:14.810Z,46.96
2017-08-14T11:18:24.771Z,48.43
2017-08-14T11:19:34.732Z,49.65
2017-08-14T11:20:44.696Z,48.43
2017-08-14T11:21:54.979Z,49.87
2017-08-14T11:23:05.265Z,47.46
2017-08-14T11:24:15.553Z,47.66
2017-08-14T11:25:25.838Z,47.36
2017-08-14T11:26:36.111Z,46.53
2017-08-14T11:27:46.080Z,46.04
2017-08-14T11:28:56.354Z,48.47
2017-08-14T11:30:06.638Z,46.77
2017-08-14T11:31:16.911Z,44.96
2017-08-14T11:32:26.877Z,43.54
2017-08-14T11:33:37.161Z,45.2
2017-08-14T11:34:47.129Z,43.75
2017-08-14T11:35:57.409Z,41.48
2017-08-14T11:37:07.687Z,39.06
2017-08-14T11:38:17.029Z,38.31
2017-08-14T11:39:27.308Z,41.71
2017-08-14T11:40:37.599Z,39.39
2017-08-14T11:41:47.561Z,38.54
2017-08-14T11:42:57.534Z,37.4
2017-08-14T11:44:07.815Z,38.95
2017-08-14T11:45:17.796Z,38.56
2017-08-14T11:46:28.105Z,38.87
2017-08-14T11:47:38.390Z,39.69
2017-08-14T11:48:48.755Z,37.79
2017-08-14T11:49:59.036Z,35.38
2017-08-14T11:51:09.009Z,34.81
2017-08-14T11:52:18.665Z,36
2017-08-14T11:53:28.954Z,36.4
2017-08-14T11:54:38.924Z,34.5
2017-08-14T11:55:48.904Z,31.6
2017-08-14T11:56:58.893Z,29.76
2017-08-14T11:58:08.867Z,29.86
2017-08-14T11:59:18.841Z,30.9
2017-08-14T12:00:28.811Z,30.41
2017-08-14T12:01:38.783Z,30.05
2017-08-14T12:02:49.092Z,30.02
2017-08-14T12:03:58.125Z,30.37
2017-08-14T12:05:08.101Z,30.74
2017-08-14T12:06:18.389Z,32
2017-08-14T12:07:28.367Z,32.7
2017-08-14T12:08:38.655Z,31.65
2017-08-14T12:09:48.632Z,31.91
2017-08-14T12:10:58.933Z,33.46
2017-08-14T12:12:09.221Z,32.97
2017-08-14T12:13:19.507Z,33.65
2017-08-14T12:14:29.160Z,30.66
2017-08-14T12:15:39.446Z,33.38
2017-08-14T12:16:49.105Z,32.7
2017-08-14T12:17:58.763Z,33.29
2017-08-14T12:19:08.419Z,34.66
2017-08-14T12:20:18.709Z,34.87
2017-08-14T12:21:29.001Z,33.62
2017-08-14T12:22:39.287Z,33.34
2017-08-14T12:23:49.577Z,32.7
2017-08-14T12:24:59.867Z,32.71
2017-08-14T12:26:10.160Z,31.27
2017-08-14T12:27:20.451Z,32.15
2017-08-14T12:28:30.421Z,32.7
2017-08-14T12:29:40.709Z,32.79
2017-08-14T12:30:51.028Z,31.51
2017-08-14T12:32:01.007Z,32.2
2017-08-14T12:33:10.666Z,32.7
2017-08-14T12:34:20.964Z,30.87
2017-08-14T12:35:30.963Z,30.39
2017-08-14T12:36:41.258Z,29.92
2017-08-14T12:37:51.234Z,30.21
2017-08-14T12:39:01.534Z,31.19
2017-08-14T12:40:11.508Z,32.47
2017-08-14T12:41:21.480Z,32.19
2017-08-14T12:42:30.826Z,31.13
2017-08-14T12:43:41.110Z,27.7
2017-08-14T12:44:51.091Z,29.03
2017-08-14T12:46:01.380Z,28.83
2017-08-14T12:47:11.353Z,29.03
2017-08-14T12:48:21.353Z,29.99
2017-08-14T12:49:31.330Z,30.19
2017-08-14T12:50:41.618Z,30.58
2017-08-14T12:51:51.601Z,29.5
2017-08-14T12:53:01.572Z,30.93
2017-08-14T12:54:11.571Z,32.08
2017-08-14T12:55:21.229Z,33.31
2017-08-14T12:56:31.204Z,33.41
2017-08-14T12:57:41.490Z,34.46
2017-08-14T12:58:51.460Z,34.91
2017-08-14T13:00:01.745Z,35.9
2017-08-14T13:01:11.402Z,33.8
2017-08-14T13:02:21.373Z,32.94
2017-08-14T13:03:31.343Z,32.47
2017-08-14T13:04:41.325Z,31.92
2017-08-14T13:05:51.296Z,29.11
2017-08-14T13:07:00.967Z,28.05
2017-08-14T13:08:11.261Z,27.39
2017-08-14T13:09:21.270Z,29.11
2017-08-14T13:10:31.269Z,24.74
2017-08-14T13:11:41.563Z,26.28
2017-08-14T13:12:51.222Z,27.15
2017-08-14T13:14:01.519Z,24.91
2017-08-14T13:15:11.810Z,26.28
2017-08-14T13:16:21.788Z,26.87
2017-08-14T13:17:32.093Z,28.25
2017-08-14T13:18:42.383Z,26.59
2017-08-14T13:19:52.667Z,27.11
2017-08-14T13:21:02.956Z,21.75
2017-08-14T13:22:12.933Z,22.23
2017-08-14T13:23:23.225Z,24.17
2017-08-14T13:24:33.204Z,23.3
2017-08-14T13:25:43.495Z,25.62
2017-08-14T13:26:53.473Z,26.89
2017-08-14T13:28:03.461Z,26.51
2017-08-14T13:29:12.806Z,25.54
2017-08-14T13:30:23.096Z,25.65
2017-08-14T13:31:33.075Z,24
2017-08-14T13:32:42.419Z,23.78
2017-08-14T13:33:52.715Z,26.51
2017-08-14T13:35:03.007Z,24.39
2017-08-14T13:36:12.984Z,23.9
2017-08-14T13:37:22.964Z,23.03
2017-08-14T13:38:33.249Z,23.43
2017-08-14T13:39:43.229Z,22.27
2017-08-14T13:40:53.200Z,20.41
2017-08-14T13:42:03.490Z,22.44
2017-08-14T13:43:13.467Z,20.79
2017-08-14T13:44:23.440Z,23.03
2017-08-14T13:45:34.036Z,21.18
2017-08-14T13:46:43.702Z,20.78
2017-08-14T13:47:53.049Z,23.02
2017-08-14T13:49:03.023Z,23.03
2017-08-14T13:50:13.314Z,23.14
2017-08-14T13:51:22.975Z,22.96
2017-08-14T13:52:33.268Z,21.21
2017-08-14T13:53:43.240Z,21.01
2017-08-14T13:54:53.226Z,19.83
2017-08-14T13:56:03.514Z,22.96
2017-08-14T13:57:13.803Z,20.72
2017-08-14T13:58:23.778Z,21.8
2017-08-14T13:59:34.070Z,21.33
2017-08-14T14:00:44.364Z,20.96
2017-08-14T14:01:54.654Z,21.94
2017-08-14T14:03:04.629Z,21.26
2017-08-14T14:04:14.611Z,19.12
2017-08-14T14:05:24.588Z,20.19
2017-08-14T14:06:34.565Z,20.78
2017-08-14T14:07:44.557Z,21.38
2017-08-14T14:08:54.529Z,20.89
2017-08-14T14:10:04.573Z,18.72
2017-08-14T14:11:14.555Z,20.17
2017-08-14T14:12:24.850Z,21.83
2017-08-14T14:13:34.826Z,17.54
2017-08-14T14:14:44.170Z,18.7
2017-08-14T14:15:54.163Z,18.5
2017-08-14T14:17:03.513Z,17.41
2017-08-14T14:18:13.807Z,18.96
2017-08-14T14:19:23.791Z,19.35
2017-08-14T14:20:33.766Z,20.62
2017-08-14T14:21:44.083Z,19.06
2017-08-14T14:22:54.383Z,19.54
2017-08-14T14:24:04.353Z,19.93
2017-08-14T14:25:14.332Z,20.31
2017-08-14T14:26:24.305Z,20.9
2017-08-14T14:27:34.593Z,21.89
2017-08-14T14:28:44.887Z,21.6
2017-08-14T14:29:54.547Z,19.85
2017-08-14T14:31:04.846Z,21.13
2017-08-14T14:32:15.161Z,19.96
2017-08-14T14:33:25.447Z,18.88
2017-08-14T14:34:35.748Z,19.37
2017-08-14T14:35:46.039Z,20.95
2017-08-14T14:36:56.332Z,19.39
2017-08-14T14:38:06.010Z,18.41
2017-08-14T14:39:16.314Z,17.44
2017-08-14T14:40:25.973Z,17.33
2017-08-14T14:41:36.264Z,17.02
2017-08-14T14:42:46.555Z,16.91
2017-08-14T14:43:56.528Z,18.55
2017-08-14T14:45:06.190Z,18.84
2017-08-14T14:46:16.485Z,19.99
2017-08-14T14:47:26.457Z,19.78
2017-08-14T14:48:36.115Z,21.61
2017-08-14T14:49:46.402Z,21.03
2017-08-14T14:50:56.061Z,20.83
2017-08-14T14:52:06.354Z,21.02
2017-08-14T14:53:16.327Z,23.55
2017-08-14T14:54:26.617Z,22.49
2017-08-14T14:55:36.905Z,22.2
2017-08-14T14:56:46.879Z,21.04
2017-08-14T14:57:56.864Z,22.41
2017-08-14T14:59:06.839Z,21.34
2017-08-14T15:00:16.814Z,21.74
2017-08-14T15:01:26.793Z,21.36
2017-08-14T15:02:37.080Z,21.18
2017-08-14T15:03:47.057Z,20.12
2017-08-14T15:04:56.714Z,20.32
2017-08-14T15:06:07.004Z,20.82